x

Pensacola - 115nm Ese Of Pensacola, Fl (42039) Wave Buoy

5:50pm - Thu 25th Aug 2016 All times are CDT. -5 hours from GMT.

  • Sig Wave height 4.3ft
  • Swell Direction
  • Peak Period 6s
  • Average Period 4s
  • Wind
    18mph, 22mph gusts
  • Sea Temp 86°f
  • Air Temp 85°f
  • Sea Pressure 1015.8mb
  • Pensacola - 115nm Ese Of Pensacola, Fl
  • Pensacola - 115nm Ese Of Pensacola, Fl

More Historic Weather Station data

Upgrade to MSW Pro to gain access to the past 30 days of data for over 8000 Wavebouys and Weather Stations around the globe.

Join Pro

Comparision Forecast

View Surf forecast
   
Thu 08/25 5:50pm 4.5ft 6s 4s 18 22 mph 1015.8mb 86f 85f
4:50pm 4.5ft 6s 4s 20 25 mph 1015.6mb 86f 84f
3:50pm 4.5ft 6s 4s 22 25 mph 1016.1mb 86f 84f
2:50pm 4.5ft 6s 5s 20 25 mph 1016.3mb 86f 84f
1:50pm 4.5ft 6s 4s 20 25 mph 1017mb 86f 84f
12:50pm 4ft 6s 4s 20 25 mph 1017.8mb 86f 83f
11:50am 3.5ft 6s 4s 20 25 mph 1018.6mb 86f 84f
10:50am 3.5ft 7s 5s 18 22 mph 1018.7mb 86f 85f
9:50am 3.5ft 6s 5s 16 20 mph 1019mb 86f 85f
8:50am 4ft 6s 5s 16 18 mph 1019mb 86f 85f
7:50am 3.5ft 6s 4s 16 20 mph 1018.6mb 86f 85f
6:50am 3.5ft 6s 4s 16 20 mph 1018.1mb 86f 85f
5:50am 3.5ft 5s 4s 18 20 mph 1017.7mb 87f 85f
4:50am 3ft 5s 4s 18 20 mph 1017.2mb 87f 85f
3:50am 2.5ft 4s 4s 18 22 mph 1017mb 87f 86f
2:50am 2.5ft 5s 4s 16 18 mph 1017mb 87f 86f
1:50am 2ft 5s 4s 16 22 mph 1017.4mb 87f 87f
12:50am 2ft 5s 4s 13 16 mph 1018.2mb 87f 86f
Wed 08/24 11:50pm 2ft 5s 4s 9 13 mph 1018.7mb 87f 86f
10:50pm 2ft 5s 4s 9 11 mph 1019.2mb 87f 86f
9:50pm 2.5ft 5s 4s 11 13 mph 1019.4mb 87f 86f
8:50pm 2.5ft 5s 4s 11 13 mph 1019.5mb 87f 86f
7:50pm 2.5ft 5s 4s 16 18 mph 1019.2mb 87f 86f
6:50pm 2ft 5s 4s 13 16 mph 1018.8mb 87f 86f
5:50pm 1.6ft 5s 4s 16 18 mph 1018.4mb 87f 86f
4:50pm 1.6ft 5s 4s 9 11 mph 1018.4mb 87f 84f
3:50pm 2ft 5s 4s 9 11 mph 1018.9mb 87f 83f
2:50pm 2ft 5s 4s 9 11 mph 1019.3mb 87f 81f
1:50pm 2.5ft 5s 4s 4
mph
1020.4mb 87f 80f
12:50pm 2.5ft 5s 3s 13 16 mph 1021.2mb 87f 79f
11:50am 1.6ft 5s  -  25 31 mph 1020.9mb 87f 81f
10:50am 1.6ft 5s 4s 18 22 mph 1020.9mb 87f 84f
9:50am 2ft 5s 4s 9 11 mph 1021.2mb 87f 86f
8:50am 1.6ft 4s 4s 9 11 mph 1021.1mb 87f 86f
7:50am 1.6ft 4s 4s 9
mph
1020.5mb 87f 86f
6:50am 1.6ft 4s 4s 9
mph
1019.8mb 87f 86f
5:50am 1.3ft 4s 3s 11 13 mph 1019.7mb 87f 85f
4:50am 1.3ft 3s 3s 9 11 mph 1019.3mb 87f 85f
3:50am 1ft 3s 3s 11 13 mph 1019.4mb 87f 85f
2:50am 1ft 3s 3s 13 18 mph 1019.7mb 87f 86f
1:50am 1ft 2s 3s 16 18 mph 1019.8mb 88f 86f
12:50am 0.7ft  -  4s 9 11 mph 1020.1mb 88f 86f
Tue 08/23 11:50pm 0.7ft  -  4s 7 9 mph 1020.4mb 88f 86f
10:50pm 0.7ft  -  4s 7 9 mph 1020.8mb 88f 86f
9:50pm 0.7ft  -  4s 9 11 mph 1021.1mb 88f 86f
8:50pm 0.7ft  -  4s 7 11 mph 1020.9mb 88f 86f
7:50pm 0.7ft  -  4s 7 9 mph 1020.4mb 88f 86f
6:50pm 0.7ft  -  4s 7
mph
1020.1mb 89f 86f
5:50pm 0.7ft  -  4s 4
mph
1019.9mb 89f 87f
4:50pm 0.7ft  -  4s 4 7 mph 1019.9mb 90f 87f
3:50pm 0.7ft  -  4s 2 4 mph 1020.4mb 90f 86f
2:50pm 0.7ft  -  4s 4 7 mph 1020.9mb 89f 86f
1:50pm 0.7ft  -  5s 7 9 mph 1021.6mb 88f 86f
12:50pm 0.7ft  -  5s 4 7 mph 1022.3mb 89f 86f
11:50am 0.7ft  -  5s 7
mph
1022.9mb 88f 86f
10:50am 0.7ft  -  5s 7 9 mph 1022.9mb 88f 86f
9:50am 0.7ft  -  5s 4 7 mph 1022.9mb 87f 85f
8:50am 0.7ft  -  5s 4 7 mph 1022.4mb 87f 85f
7:50am 0.7ft  -  4s 7 9 mph 1022.2mb 87f 86f
6:50am 0.7ft  -  4s 7 9 mph 1021.6mb 87f 85f
5:50am 0.7ft  -  4s 7 9 mph 1021mb 87f 85f
4:50am 0.7ft  -  4s 4 7 mph 1020.7mb 87f 85f
3:50am 0.7ft  -  4s 4 7 mph 1020.1mb 87f 85f
2:50am 0.7ft  -  4s 2 4 mph 1020.1mb 87f 85f
1:50am 1ft 5s 4s 4 7 mph 1020.2mb 87f 85f
12:50am 0.7ft  -  4s 4 7 mph 1020.8mb 87f 86f
Mon 08/22 11:50pm 1ft 5s 4s 4 7 mph 1021mb 87f 86f
10:50pm 1ft 6s 4s 4 7 mph 1021.4mb 88f 86f
9:50pm 1ft 5s 4s 4
mph
1021.2mb 88f 86f
8:50pm 1ft 6s 4s 2 4 mph 1020.9mb 87f 86f
7:50pm 0.7ft  -  4s 4 7 mph 1020.3mb 88f 86f
6:50pm 1ft 6s 4s 2 7 mph 1019.6mb 89f 87f
5:50pm 0.7ft  -  4s 2 4 mph 1019.4mb 90f 87f
4:50pm 1ft 5s 4s  -  2 mph 1019.5mb 91f 88f
3:50pm 1ft 5s 4s 2 9 mph 1019.5mb 92f 87f
2:50pm 1ft 6s 4s 2 4 mph 1019.9mb 92f 87f
1:50pm 1ft 6s 4s 2
mph
1020.4mb 91f 86f
12:50pm 0.7ft  -  5s 2
mph
1020.6mb 91f 86f
11:50am 0.7ft  -  4s 2
mph
1020.8mb 89f 85f
10:50am 0.7ft  -  4s  -  2 mph 1020.8mb 88f 85f
9:50am 0.7ft  -  4s 2 4 mph 1020.3mb 87f 85f
8:50am 1ft 5s 4s 4
mph
1020.2mb 86f 85f
7:50am 1ft 6s 4s 7 9 mph 1019.7mb 86f 84f
6:50am 1ft 5s 4s 2 4 mph 1019.2mb 86f 84f
5:50am 1ft 6s 4s 4
mph
1018.3mb 86f 84f
4:50am 1ft 7s 4s 4 7 mph 1017.6mb 86f 84f
3:50am 1ft 5s 4s 2 4 mph 1017.3mb 86f 84f
2:50am 1ft 3s 3s 4 7 mph 1017.3mb 86f 84f
1:50am 1ft 3s 4s 4 7 mph 1017.4mb 86f 84f
12:50am 1ft 3s 4s 4 7 mph 1017.7mb 86f 85f